Time;durP1;ratioP1;P1;durP2;ratioP2;P2;SDS_P1;SDS_P2;PMS_P1;PMS_P2;Temp;Humidity;BMP_temperature;BMP_pressure;BME280_temperature;BME280_humidity;BME280_pressure;Samples;Min_cycle;Max_cycle;Signal;HPM_P1;HPM_P2
2021/09/08 00:00:49;;;;;;;0.73;0.25;;;14.40;99.90;;;;;;5010266;28;20033;-82
2021/09/08 00:03:14;;;;;;;0.90;0.30;;;14.40;99.90;;;;;;5010247;28;20025;-83
2021/09/08 00:05:41;;;;;;;0.10;0.10;;;14.40;99.90;;;;;;5009880;28;20033;-83
2021/09/08 00:08:07;;;;;;;0.22;0.20;;;14.40;99.90;;;;;;5010263;28;20060;-83
2021/09/08 00:10:33;;;;;;;0.20;0.10;;;14.40;99.90;;;;;;5010212;28;20026;-83
2021/09/08 00:12:59;;;;;;;0.38;0.20;;;14.40;99.90;;;;;;5010116;28;20038;-83
2021/09/08 00:15:25;;;;;;;0.40;0.20;;;14.40;99.90;;;;;;5010063;28;20090;-82
2021/09/08 00:17:51;;;;;;;0.17;0.17;;;14.40;99.90;;;;;;5009985;28;20057;-78
2021/09/08 00:20:17;;;;;;;0.10;0.10;;;14.40;99.90;;;;;;5009935;28;20429;-75
2021/09/08 00:22:44;;;;;;;0.77;0.20;;;14.40;99.90;;;;;;5009509;28;20104;-73
2021/09/08 00:25:12;;;;;;;0.17;0.15;;;14.40;99.90;;;;;;5010158;28;20389;-72
2021/09/08 00:27:38;;;;;;;0.90;0.20;;;14.40;99.90;;;;;;5010015;28;20040;-72
2021/09/08 00:30:05;;;;;;;0.47;0.28;;;14.40;99.90;;;;;;5010071;28;20056;-72
2021/09/08 00:32:30;;;;;;;1.25;0.20;;;14.40;99.90;;;;;;5009885;28;20033;-72
2021/09/08 00:34:56;;;;;;;0.10;0.10;;;14.30;99.90;;;;;;5009979;28;20473;-71
2021/09/08 00:37:22;;;;;;;1.33;0.20;;;14.40;99.90;;;;;;5009735;28;20473;-72
2021/09/08 00:39:48;;;;;;;0.10;0.10;;;14.30;99.90;;;;;;5009646;28;20037;-72
2021/09/08 00:42:15;;;;;;;1.55;0.25;;;14.30;99.90;;;;;;5009565;28;20026;-72
2021/09/08 00:44:42;;;;;;;0.43;0.20;;;14.40;99.90;;;;;;5009415;28;20041;-72
2021/09/08 00:47:15;;;;;;;0.25;0.20;;;14.40;99.90;;;;;;5009409;28;20022;-72
2021/09/08 00:49:42;;;;;;;1.95;0.20;;;14.40;99.90;;;;;;5009432;28;20055;-72
2021/09/08 00:52:10;;;;;;;0.75;0.20;;;14.30;99.90;;;;;;5007781;28;20524;-72
2021/09/08 00:54:37;;;;;;;0.20;0.20;;;14.30;99.90;;;;;;5009155;28;20473;-72
2021/09/08 00:57:04;;;;;;;1.65;0.20;;;14.30;99.90;;;;;;5009588;28;20044;-71
2021/09/08 00:59:33;;;;;;;2.45;0.20;;;14.30;99.90;;;;;;5009524;28;20034;-72
2021/09/08 01:02:04;;;;;;;1.13;0.15;;;14.30;99.90;;;;;;5009274;28;20018;-72
2021/09/08 01:04:31;;;;;;;2.45;0.30;;;14.30;99.90;;;;;;5009174;28;20026;-72
2021/09/08 01:07:04;;;;;;;1.38;0.20;;;14.30;99.90;;;;;;5009127;28;20026;-72
2021/09/08 01:09:31;;;;;;;1.65;0.20;;;14.30;99.90;;;;;;5009150;28;20030;-72
2021/09/08 01:11:57;;;;;;;1.75;0.30;;;14.30;99.90;;;;;;5009009;28;20033;-71
2021/09/08 01:14:24;;;;;;;0.40;0.22;;;14.30;99.90;;;;;;5009135;28;20366;-71
2021/09/08 01:45:54;;;;;;;0.20;0.20;;;14.20;99.90;;;;;;5011997;28;20084;-75
2021/09/08 01:48:20;;;;;;;0.20;0.20;;;14.20;99.90;;;;;;5012069;28;20026;-75
2021/09/08 01:50:47;;;;;;;1.75;0.30;;;14.20;99.90;;;;;;5012361;28;20026;-75
2021/09/08 01:53:12;;;;;;;0.85;0.20;;;14.20;99.90;;;;;;5011736;28;20060;-75
2021/09/08 01:55:38;;;;;;;3.50;0.30;;;14.20;99.90;;;;;;5012339;28;20116;-75
2021/09/08 01:58:04;;;;;;;1.75;0.28;;;14.20;99.90;;;;;;5012256;28;20034;-75
2021/09/08 02:00:30;;;;;;;0.20;0.20;;;14.20;99.90;;;;;;5012046;28;20022;-75
2021/09/08 02:02:56;;;;;;;0.28;0.28;;;14.20;99.90;;;;;;5012116;28;20114;-75
2021/09/08 02:05:21;;;;;;;0.30;0.30;;;14.20;99.90;;;;;;5012124;28;20037;-75
2021/09/08 02:07:47;;;;;;;1.38;0.30;;;14.20;99.90;;;;;;5012097;28;20556;-75
2021/09/08 02:10:13;;;;;;;1.60;0.20;;;14.20;99.90;;;;;;5011801;28;20018;-75
2021/09/08 02:12:39;;;;;;;0.22;0.22;;;14.20;99.90;;;;;;5011677;28;20381;-75
2021/09/08 02:15:06;;;;;;;0.20;0.20;;;14.20;99.90;;;;;;5011738;28;20022;-74
2021/09/08 02:17:32;;;;;;;0.60;0.30;;;14.20;99.90;;;;;;5011942;28;20030;-74
2021/09/08 02:19:58;;;;;;;0.25;0.20;;;14.20;99.90;;;;;;5011661;28;20032;-74
2021/09/08 02:22:23;;;;;;;0.20;0.20;;;14.20;99.90;;;;;;5011684;28;20032;-74
2021/09/08 02:24:49;;;;;;;1.80;0.40;;;14.20;99.90;;;;;;5011609;28;20520;-77
2021/09/08 02:27:15;;;;;;;2.00;0.30;;;14.20;99.90;;;;;;5011623;28;20067;-76
2021/09/08 02:29:41;;;;;;;0.90;0.40;;;14.20;99.90;;;;;;5011532;28;20456;-77
2021/09/08 02:32:06;;;;;;;0.43;0.20;;;14.20;99.90;;;;;;5011158;28;20026;-78
2021/09/08 02:34:33;;;;;;;0.38;0.20;;;14.20;99.90;;;;;;5011706;28;20133;-77
2021/09/08 02:36:59;;;;;;;0.63;0.20;;;14.20;99.90;;;;;;5011391;28;20026;-77
2021/09/08 02:39:25;;;;;;;1.35;0.50;;;14.20;99.90;;;;;;5011248;28;20022;-77
2021/09/08 02:41:50;;;;;;;0.28;0.20;;;14.20;99.90;;;;;;5011283;28;20029;-77
2021/09/08 02:44:16;;;;;;;1.88;0.30;;;14.20;99.90;;;;;;5011163;28;20067;-77
2021/09/08 02:46:42;;;;;;;0.20;0.20;;;14.20;99.90;;;;;;5010809;28;20121;-76
2021/09/08 02:49:11;;;;;;;0.20;0.20;;;14.20;99.90;;;;;;5011298;28;20026;-76
2021/09/08 02:51:36;;;;;;;0.57;0.30;;;14.10;99.90;;;;;;5011417;28;20101;-76
2021/09/08 02:54:02;;;;;;;0.77;0.32;;;14.10;99.90;;;;;;5010696;28;20137;-76
2021/09/08 02:56:28;;;;;;;2.35;0.25;;;14.10;99.90;;;;;;5010973;28;20018;-76
2021/09/08 02:58:54;;;;;;;0.20;0.20;;;14.10;99.90;;;;;;5011154;28;20202;-76
2021/09/08 03:01:20;;;;;;;0.55;0.30;;;14.10;99.90;;;;;;5010881;28;20351;-76
2021/09/08 03:03:45;;;;;;;0.52;0.20;;;14.10;99.90;;;;;;5011382;28;20052;-75
2021/09/08 03:06:11;;;;;;;0.20;0.20;;;14.10;99.90;;;;;;5010860;28;20030;-75
2021/09/08 03:08:37;;;;;;;0.30;0.30;;;14.10;99.90;;;;;;5010985;28;20029;-76
2021/09/08 03:11:03;;;;;;;0.20;0.20;;;14.10;99.90;;;;;;5010808;28;20389;-75
2021/09/08 03:13:29;;;;;;;0.35;0.30;;;14.10;99.90;;;;;;5010801;28;20124;-76
2021/09/08 03:15:54;;;;;;;0.73;0.28;;;14.10;99.90;;;;;;5011049;28;20105;-76
2021/09/08 03:18:20;;;;;;;0.22;0.20;;;14.10;99.90;;;;;;5011003;28;20116;-76
2021/09/08 03:20:46;;;;;;;0.28;0.20;;;14.10;99.90;;;;;;5010685;28;20525;-78
2021/09/08 03:23:12;;;;;;;0.73;0.40;;;14.10;99.90;;;;;;5010619;28;20041;-79
2021/09/08 03:25:38;;;;;;;1.98;0.57;;;14.10;99.90;;;;;;5010655;28;20042;-79
2021/09/08 03:28:04;;;;;;;0.57;0.30;;;14.10;99.90;;;;;;5010764;28;20037;-79
2021/09/08 03:30:30;;;;;;;0.30;0.30;;;14.10;99.90;;;;;;5011073;28;20026;-79
2021/09/08 03:32:56;;;;;;;0.65;0.30;;;14.10;99.90;;;;;;5010583;28;20049;-79
2021/09/08 03:35:21;;;;;;;0.38;0.38;;;14.10;99.90;;;;;;5010645;28;20076;-79
2021/09/08 03:37:48;;;;;;;0.82;0.40;;;14.20;99.90;;;;;;5010615;28;20022;-79
2021/09/08 03:40:14;;;;;;;0.98;0.50;;;14.10;99.90;;;;;;5010475;28;20017;-79
2021/09/08 03:42:40;;;;;;;1.00;0.35;;;14.20;99.90;;;;;;5010734;28;20032;-79
2021/09/08 03:45:10;;;;;;;0.98;0.30;;;14.10;99.90;;;;;;5010604;28;20026;-79
2021/09/08 03:47:36;;;;;;;0.68;0.40;;;14.20;99.90;;;;;;5010260;28;20409;-79
2021/09/08 03:50:02;;;;;;;1.45;0.30;;;14.20;99.90;;;;;;5010251;28;20038;-79
2021/09/08 03:52:28;;;;;;;0.55;0.30;;;14.10;99.90;;;;;;5009781;28;20140;-76
2021/09/08 03:54:54;;;;;;;3.70;0.55;;;14.10;99.90;;;;;;5010557;28;20118;-74
2021/09/08 03:57:19;;;;;;;0.30;0.30;;;14.10;99.90;;;;;;5009414;28;20026;-74
2021/09/08 03:59:45;;;;;;;1.85;0.25;;;14.10;99.90;;;;;;5010135;28;20523;-75
2021/09/08 04:02:11;;;;;;;1.75;0.38;;;14.00;99.90;;;;;;5009929;28;20067;-75
2021/09/08 04:04:37;;;;;;;1.98;0.20;;;14.00;99.90;;;;;;5010338;28;20091;-76
2021/09/08 04:07:02;;;;;;;1.02;0.40;;;14.10;99.90;;;;;;5010235;28;20477;-75
2021/09/08 04:09:28;;;;;;;0.82;0.30;;;14.00;99.90;;;;;;5009904;28;20477;-75
2021/09/08 04:11:54;;;;;;;0.88;0.28;;;14.10;99.90;;;;;;5009901;28;20053;-75
2021/09/08 04:14:20;;;;;;;1.13;0.45;;;14.10;99.90;;;;;;5010053;28;20087;-75
2021/09/08 04:16:45;;;;;;;0.22;0.22;;;14.10;99.90;;;;;;5009848;28;20033;-75
2021/09/08 04:19:11;;;;;;;0.50;0.40;;;14.10;99.90;;;;;;5009715;28;20082;-75
2021/09/08 04:21:37;;;;;;;1.08;0.40;;;14.00;99.90;;;;;;5009659;28;20442;-76
2021/09/08 04:24:02;;;;;;;0.57;0.40;;;14.10;99.90;;;;;;5010050;28;20022;-76
2021/09/08 04:26:28;;;;;;;0.32;0.32;;;14.10;99.90;;;;;;5009423;28;20049;-76
2021/09/08 04:28:54;;;;;;;0.47;0.45;;;14.10;99.90;;;;;;5009662;28;20033;-77
2021/09/08 04:31:20;;;;;;;0.98;0.40;;;14.10;99.90;;;;;;5009508;28;20030;-73
2021/09/08 04:33:45;;;;;;;0.35;0.30;;;14.10;99.90;;;;;;5009827;28;20034;-72
2021/09/08 04:36:11;;;;;;;3.17;0.35;;;14.00;99.90;;;;;;5009385;28;20135;-73
2021/09/08 04:38:38;;;;;;;4.22;0.50;;;14.20;99.90;;;;;;5009485;28;20056;-74
2021/09/08 04:41:04;;;;;;;0.50;0.38;;;14.70;99.90;;;;;;5009424;28;20054;-73
2021/09/08 04:43:30;;;;;;;0.30;0.30;;;14.60;99.90;;;;;;5009562;28;20061;-72
2021/09/08 04:45:56;;;;;;;2.03;0.40;;;14.50;99.90;;;;;;5009261;28;20492;-77
2021/09/08 04:48:21;;;;;;;0.88;0.47;;;14.40;99.90;;;;;;5009098;28;20030;-74
2021/09/08 04:50:47;;;;;;;1.25;0.68;;;14.30;99.90;;;;;;5009372;28;20434;-73
2021/09/08 04:53:13;;;;;;;1.27;0.45;;;14.30;99.90;;;;;;5008707;28;20038;-77
2021/09/08 04:55:39;;;;;;;0.80;0.55;;;14.20;99.90;;;;;;5004720;28;20035;-75
2021/09/08 04:58:07;;;;;;;4.07;0.73;;;14.20;99.90;;;;;;4993989;28;20022;-74
2021/09/08 05:00:33;;;;;;;7.43;1.73;;;14.20;99.90;;;;;;5006261;28;20034;-72
2021/09/08 05:02:59;;;;;;;0.38;0.38;;;14.40;99.90;;;;;;5008890;28;20100;-73
2021/09/08 05:05:24;;;;;;;2.88;0.45;;;14.50;99.90;;;;;;5009006;28;20523;-69
2021/09/08 05:07:50;;;;;;;0.75;0.40;;;14.60;99.90;;;;;;4999359;28;20026;-71
2021/09/08 05:10:16;;;;;;;2.63;0.63;;;14.50;99.90;;;;;;4995610;28;20037;-69
2021/09/08 05:12:45;;;;;;;0.93;0.20;;;14.50;99.90;;;;;;4992732;28;20038;-74
2021/09/08 05:15:11;;;;;;;0.70;0.30;;;14.50;99.90;;;;;;4992687;28;20212;-74
2021/09/08 05:17:37;;;;;;;2.92;0.50;;;14.50;99.90;;;;;;4992826;28;20031;-71
2021/09/08 05:20:04;;;;;;;0.30;0.30;;;14.50;99.90;;;;;;4993173;28;20376;-71
2021/09/08 05:22:30;;;;;;;0.35;0.30;;;14.50;99.90;;;;;;4991378;28;20031;-70
2021/09/08 05:24:55;;;;;;;0.65;0.40;;;14.40;99.90;;;;;;4992823;28;20617;-71
2021/09/08 05:27:21;;;;;;;0.63;0.30;;;14.40;99.90;;;;;;4992930;28;20023;-69
2021/09/08 05:29:47;;;;;;;1.35;0.40;;;14.40;99.90;;;;;;4991540;28;20077;-70
2021/09/08 05:32:16;;;;;;;0.35;0.35;;;14.40;99.90;;;;;;4991737;28;20019;-70
2021/09/08 05:34:41;;;;;;;0.60;0.30;;;14.40;99.90;;;;;;4991470;28;20128;-70
2021/09/08 05:37:07;;;;;;;0.57;0.35;;;14.40;99.90;;;;;;4992626;28;20023;-70
2021/09/08 05:39:33;;;;;;;1.05;0.50;;;14.40;99.90;;;;;;4992481;28;20367;-70
2021/09/08 05:41:58;;;;;;;1.92;0.50;;;14.40;99.90;;;;;;4992569;28;20396;-70
2021/09/08 05:44:24;;;;;;;0.55;0.32;;;14.30;99.90;;;;;;4992734;28;20029;-70
2021/09/08 05:46:50;;;;;;;0.40;0.40;;;14.30;99.90;;;;;;4992399;28;20511;-69
2021/09/08 05:49:16;;;;;;;2.42;0.40;;;14.30;99.90;;;;;;4992303;28;20109;-69
2021/09/08 05:51:42;;;;;;;0.50;0.38;;;14.30;99.90;;;;;;4992062;28;20027;-70
2021/09/08 05:54:08;;;;;;;0.35;0.30;;;14.30;99.90;;;;;;4992238;28;20042;-70
2021/09/08 05:56:34;;;;;;;0.45;0.35;;;14.20;99.90;;;;;;4992116;28;20022;-70
2021/09/08 05:59:00;;;;;;;0.38;0.30;;;14.30;99.90;;;;;;4992310;28;20033;-73
2021/09/08 06:01:26;;;;;;;0.30;0.30;;;14.30;99.90;;;;;;4997652;28;20488;-70
2021/09/08 06:03:52;;;;;;;1.45;0.40;;;14.30;99.90;;;;;;5078336;28;20028;-70
2021/09/08 06:06:17;;;;;;;0.28;0.28;;;14.30;99.90;;;;;;5114858;28;20028;-72
2021/09/08 06:08:43;;;;;;;0.35;0.22;;;14.30;99.90;;;;;;5115333;27;20034;-72
2021/09/08 06:11:09;;;;;;;0.25;0.25;;;14.40;99.90;;;;;;5112632;28;20026;-69
2021/09/08 06:13:35;;;;;;;0.40;0.30;;;14.30;99.90;;;;;;5011216;28;20042;-69
2021/09/08 06:16:01;;;;;;;0.40;0.40;;;14.30;99.90;;;;;;5011689;28;20428;-69
2021/09/08 06:18:27;;;;;;;0.70;0.32;;;14.30;99.90;;;;;;5011197;28;20032;-69
2021/09/08 06:20:52;;;;;;;0.98;0.30;;;14.30;99.90;;;;;;5010788;28;20026;-69
2021/09/08 06:23:18;;;;;;;0.13;0.13;;;14.40;99.90;;;;;;5011203;28;20473;-69
2021/09/08 06:25:44;;;;;;;0.30;0.30;;;14.30;99.90;;;;;;5011277;28;20465;-69
2021/09/08 06:28:10;;;;;;;3.50;0.65;;;14.30;99.90;;;;;;5011170;28;20030;-69
2021/09/08 06:30:36;;;;;;;2.05;0.30;;;14.40;99.90;;;;;;5009707;28;20022;-69
2021/09/08 06:33:01;;;;;;;2.05;0.30;;;14.40;99.90;;;;;;5011237;28;20129;-71
2021/09/08 06:35:27;;;;;;;0.30;0.20;;;14.40;99.90;;;;;;5011334;28;20056;-71
2021/09/08 06:37:53;;;;;;;0.30;0.30;;;14.40;99.90;;;;;;5010894;28;20029;-70
2021/09/08 06:40:19;;;;;;;0.45;0.25;;;14.40;99.90;;;;;;5011148;28;20473;-71
2021/09/08 06:42:45;;;;;;;0.28;0.20;;;14.40;99.90;;;;;;5011050;28;20521;-70
2021/09/08 06:45:11;;;;;;;0.20;0.20;;;14.40;99.90;;;;;;5011005;28;20049;-70
2021/09/08 06:47:37;;;;;;;2.15;0.30;;;14.40;99.90;;;;;;5010700;28;20148;-70
2021/09/08 06:50:03;;;;;;;0.65;0.40;;;14.40;99.90;;;;;;5010826;28;20065;-70
2021/09/08 06:52:29;;;;;;;0.40;0.40;;;14.50;99.90;;;;;;5010059;28;20046;-70
2021/09/08 06:54:55;;;;;;;0.20;0.20;;;14.50;99.90;;;;;;5009524;28;20036;-71
2021/09/08 06:57:21;;;;;;;1.85;0.30;;;14.50;99.90;;;;;;5010417;28;20052;-72
2021/09/08 06:59:46;;;;;;;0.35;0.30;;;14.50;99.90;;;;;;5111767;28;20058;-72
2021/09/08 07:02:12;;;;;;;0.63;0.22;;;14.50;99.90;;;;;;5079886;28;20038;-73
2021/09/08 07:04:39;;;;;;;2.28;0.30;;;14.50;99.90;;;;;;5066359;28;20036;-72
2021/09/08 07:07:05;;;;;;;0.43;0.30;;;14.50;99.90;;;;;;5113948;28;20027;-71
2021/09/08 07:09:31;;;;;;;0.40;0.30;;;14.50;99.90;;;;;;5113913;27;20072;-72
2021/09/08 07:11:57;;;;;;;1.00;0.35;;;14.50;99.90;;;;;;5114058;28;20111;-72
2021/09/08 07:14:23;;;;;;;0.28;0.28;;;14.50;99.90;;;;;;5114042;28;20092;-71
2021/09/08 07:16:49;;;;;;;3.40;0.30;;;14.60;99.90;;;;;;5113978;28;20020;-73
2021/09/08 07:19:15;;;;;;;0.30;0.30;;;14.50;99.90;;;;;;5114234;27;20027;-74
2021/09/08 07:21:41;;;;;;;0.30;0.30;;;14.50;99.90;;;;;;5113974;28;20087;-73
2021/09/08 07:24:07;;;;;;;2.17;0.30;;;14.50;99.90;;;;;;5114008;28;20016;-73
2021/09/08 07:26:33;;;;;;;0.25;0.25;;;14.50;99.90;;;;;;5113695;27;20148;-73
2021/09/08 07:29:04;;;;;;;10.30;2.90;;;14.50;99.90;;;;;;5114008;28;20019;-73
2021/09/08 07:31:30;;;;;;;0.40;0.32;;;14.60;99.90;;;;;;5113447;28;20024;-73
2021/09/08 07:33:57;;;;;;;1.95;0.30;;;14.80;99.90;;;;;;5112708;28;20387;-73
2021/09/08 07:36:23;;;;;;;0.28;0.28;;;14.70;99.90;;;;;;5113490;28;20024;-73
2021/09/08 07:38:50;;;;;;;2.05;0.20;;;14.70;99.90;;;;;;5114059;28;20024;-73
2021/09/08 07:41:20;;;;;;;0.45;0.20;;;14.60;99.90;;;;;;5113753;28;20050;-73
2021/09/08 07:43:47;;;;;;;0.40;0.28;;;14.60;99.90;;;;;;5113751;28;20100;-74
2021/09/08 07:46:13;;;;;;;0.75;0.20;;;14.60;99.90;;;;;;5113706;28;20027;-73
2021/09/08 07:48:40;;;;;;;2.90;0.35;;;14.60;99.90;;;;;;5113713;28;20077;-73
2021/09/08 07:51:06;;;;;;;0.40;0.40;;;14.60;99.90;;;;;;5113705;28;20024;-74
2021/09/08 07:53:33;;;;;;;0.38;0.30;;;14.70;99.90;;;;;;5112877;28;20059;-73
2021/09/08 07:55:59;;;;;;;3.00;0.88;;;14.70;99.90;;;;;;5113340;28;20030;-77
2021/09/08 07:58:24;;;;;;;1.02;0.45;;;14.70;99.90;;;;;;5112916;28;20140;-73
2021/09/08 08:00:50;;;;;;;0.55;0.30;;;14.90;99.90;;;;;;5113249;27;20051;-73
2021/09/08 08:03:16;;;;;;;1.50;0.30;;;14.90;99.90;;;;;;5113062;28;20031;-73
2021/09/08 08:05:42;;;;;;;0.35;0.30;;;15.00;99.90;;;;;;5113250;28;20415;-73
2021/09/08 08:08:07;;;;;;;1.25;0.60;;;15.00;99.90;;;;;;5113189;28;20177;-71
2021/09/08 08:10:33;;;;;;;0.82;0.40;;;15.00;99.90;;;;;;5113252;28;20061;-70
2021/09/08 08:12:59;;;;;;;0.40;0.40;;;15.10;99.90;;;;;;5113208;27;20387;-70
2021/09/08 08:15:25;;;;;;;4.07;0.30;;;15.10;99.90;;;;;;5112994;28;20383;-71
2021/09/08 08:17:51;;;;;;;0.73;0.30;;;15.20;99.90;;;;;;5112700;28;20019;-77
2021/09/08 08:20:18;;;;;;;2.30;0.50;;;15.20;99.90;;;;;;5113090;28;20023;-73
2021/09/08 08:22:45;;;;;;;2.72;0.30;;;15.50;99.90;;;;;;5113017;28;20019;-73
2021/09/08 08:25:13;;;;;;;0.22;0.22;;;15.50;99.90;;;;;;5112714;28;20028;-73
2021/09/08 08:27:39;;;;;;;0.20;0.20;;;15.40;99.90;;;;;;5112807;28;20491;-73
2021/09/08 08:30:07;;;;;;;11.13;0.80;;;15.40;99.90;;;;;;5112707;28;20471;-74
2021/09/08 08:32:32;;;;;;;0.10;0.10;;;15.40;99.90;;;;;;5110990;28;20028;-73
2021/09/08 08:34:58;;;;;;;0.90;0.30;;;15.50;99.90;;;;;;5112583;28;20020;-74
2021/09/08 08:37:24;;;;;;;3.15;0.30;;;15.50;99.90;;;;;;5112399;28;20547;-66
2021/09/08 08:39:50;;;;;;;2.13;0.70;;;15.50;99.90;;;;;;5111902;28;20028;-70
2021/09/08 08:42:21;;;;;;;1.23;0.50;;;15.90;99.90;;;;;;5112584;28;20072;-66
2021/09/08 08:44:48;;;;;;;0.20;0.20;;;16.20;99.90;;;;;;5112290;28;20022;-68
2021/09/08 08:47:14;;;;;;;0.52;0.22;;;16.20;99.90;;;;;;5112382;28;20092;-68
2021/09/08 08:49:41;;;;;;;0.30;0.13;;;16.10;99.90;;;;;;5112352;28;20028;-71
2021/09/08 08:52:07;;;;;;;0.15;0.13;;;16.10;99.90;;;;;;5112144;28;20044;-71
2021/09/08 08:54:34;;;;;;;1.38;0.20;;;16.10;99.90;;;;;;5112420;28;20062;-71
2021/09/08 08:56:59;;;;;;;0.22;0.20;;;16.20;99.90;;;;;;5112628;28;20364;-71
2021/09/08 08:59:25;;;;;;;0.10;0.10;;;16.30;99.90;;;;;;5112124;28;20028;-71
2021/09/08 09:01:51;;;;;;;0.30;0.20;;;16.30;99.90;;;;;;5112316;28;20043;-71
2021/09/08 09:04:17;;;;;;;0.13;0.13;;;16.50;99.90;;;;;;5111001;28;20063;-71
2021/09/08 09:06:47;;;;;;;0.35;0.20;;;16.50;99.90;;;;;;5112031;28;20033;-72
2021/09/08 09:09:15;;;;;;;0.10;0.10;;;16.50;99.90;;;;;;5112467;28;20023;-72
2021/09/08 09:11:43;;;;;;;0.15;0.15;;;16.50;99.90;;;;;;5112230;28;20035;-73
2021/09/08 09:14:11;;;;;;;1.38;0.28;;;16.50;99.90;;;;;;5112454;28;20093;-72
2021/09/08 09:16:39;;;;;;;1.05;0.20;;;16.60;99.90;;;;;;5112325;28;20030;-73
2021/09/08 09:19:06;;;;;;;0.10;0.10;;;16.70;99.90;;;;;;5110851;28;20031;-74
2021/09/08 09:21:32;;;;;;;0.20;0.20;;;16.80;99.90;;;;;;5112052;28;20020;-73
2021/09/08 09:24:01;;;;;;;1.25;0.20;;;16.80;99.90;;;;;;5112098;28;20462;-71
2021/09/08 09:26:31;;;;;;;0.28;0.20;;;16.90;99.90;;;;;;5111898;28;20154;-71
2021/09/08 09:29:18;;;;;;;0.50;0.20;;;16.90;99.90;;;;;;5112430;28;20024;-71
2021/09/08 09:31:56;;;;;;;0.20;0.20;;;17.00;99.90;;;;;;5112046;28;20032;-72
2021/09/08 09:34:23;;;;;;;0.20;0.20;;;17.00;99.90;;;;;;5112159;28;20042;-72
2021/09/08 09:36:57;;;;;;;0.20;0.20;;;17.00;99.90;;;;;;5111792;28;20488;-69
2021/09/08 09:39:28;;;;;;;1.25;0.20;;;17.10;99.90;;;;;;5112176;28;20035;-69
2021/09/08 09:41:59;;;;;;;0.80;0.20;;;17.10;99.90;;;;;;5111977;28;20019;-70
2021/09/08 09:44:31;;;;;;;3.92;0.30;;;17.20;99.90;;;;;;5111954;28;20024;-70
2021/09/08 09:46:57;;;;;;;0.20;0.20;;;17.30;99.90;;;;;;5112036;28;20100;-70
2021/09/08 09:49:25;;;;;;;2.35;0.20;;;17.20;99.90;;;;;;5111878;28;20026;-70
2021/09/08 09:51:55;;;;;;;0.10;0.10;;;17.30;99.90;;;;;;5111507;28;20028;-70
2021/09/08 09:54:22;;;;;;;1.30;0.13;;;17.30;99.90;;;;;;5112002;28;20177;-70
2021/09/08 09:56:48;;;;;;;1.45;0.30;;;17.30;99.90;;;;;;5114635;28;20031;-70
2021/09/08 09:59:13;;;;;;;1.38;0.30;;;17.30;99.90;;;;;;5115401;28;20023;-70
2021/09/08 10:01:40;;;;;;;0.60;0.15;;;17.30;99.90;;;;;;5115346;28;20027;-70
2021/09/08 10:04:06;;;;;;;2.15;0.43;;;17.30;99.90;;;;;;5115692;28;20026;-68
2021/09/08 10:06:31;;;;;;;2.72;0.40;;;17.40;99.90;;;;;;5115354;28;20020;-70
2021/09/08 10:08:58;;;;;;;2.50;0.38;;;17.50;99.90;;;;;;5114075;28;20485;-69
2021/09/08 10:11:34;;;;;;;2.08;0.32;;;17.60;99.90;;;;;;5113961;28;20015;-70
2021/09/08 10:14:14;;;;;;;0.98;0.20;;;17.60;99.90;;;;;;5113553;28;20028;-70
2021/09/08 10:16:46;;;;;;;0.52;0.30;;;17.70;99.90;;;;;;5114937;28;20026;-70
2021/09/08 10:19:16;;;;;;;0.30;0.20;;;17.70;99.90;;;;;;5115185;27;20510;-70
2021/09/08 10:21:45;;;;;;;2.65;0.30;;;17.80;99.90;;;;;;5115610;27;20024;-71
2021/09/08 10:24:10;;;;;;;2.45;0.28;;;17.70;99.90;;;;;;5096933;28;20027;-71
2021/09/08 10:26:36;;;;;;;0.75;0.20;;;17.60;99.90;;;;;;5114974;28;20028;-71
2021/09/08 10:29:08;;;;;;;0.10;0.10;;;17.60;99.90;;;;;;5115124;28;20220;-71
2021/09/08 10:31:48;;;;;;;1.13;0.20;;;17.50;99.60;;;;;;5115030;28;20030;-71
2021/09/08 10:34:15;;;;;;;0.32;0.20;;;17.50;98.80;;;;;;5115008;28;20038;-71
2021/09/08 10:36:43;;;;;;;1.10;0.30;;;17.50;98.40;;;;;;5115040;27;20032;-71
2021/09/08 10:39:19;;;;;;;0.43;0.20;;;17.60;97.70;;;;;;5114973;27;20046;-71
2021/09/08 10:41:50;;;;;;;2.65;0.30;;;17.60;97.50;;;;;;5114704;28;20632;-71
2021/09/08 10:44:18;;;;;;;1.08;0.40;;;17.60;97.60;;;;;;5114914;28;20089;-71
2021/09/08 10:46:54;;;;;;;0.70;0.55;;;17.60;97.50;;;;;;5114441;28;20027;-71
2021/09/08 10:49:39;;;;;;;0.52;0.13;;;17.70;97.00;;;;;;5113307;28;20032;-71
2021/09/08 10:52:08;;;;;;;0.38;0.20;;;17.70;95.80;;;;;;5114252;28;20111;-71
2021/09/08 10:54:54;;;;;;;3.22;0.30;;;17.70;95.70;;;;;;5114462;28;20036;-70
2021/09/08 10:57:38;;;;;;;1.77;0.28;;;17.70;95.10;;;;;;5114298;28;20028;-70
2021/09/08 11:00:05;;;;;;;1.98;0.20;;;17.70;94.90;;;;;;5114498;28;20028;-70
2021/09/08 11:02:31;;;;;;;1.25;0.20;;;17.70;94.80;;;;;;5114184;28;20027;-71
2021/09/08 11:04:59;;;;;;;1.00;0.20;;;17.70;95.40;;;;;;5114356;28;20024;-71
2021/09/08 11:07:25;;;;;;;0.73;0.20;;;17.70;95.30;;;;;;5114022;28;20023;-70
2021/09/08 11:09:51;;;;;;;5.75;0.35;;;17.70;95.30;;;;;;5114201;28;20024;-71
2021/09/08 11:12:17;;;;;;;1.33;0.40;;;17.80;94.80;;;;;;5114315;27;20046;-71
2021/09/08 11:14:52;;;;;;;0.28;0.22;;;17.80;94.10;;;;;;5113863;28;20478;-71
2021/09/08 11:17:22;;;;;;;0.70;0.30;;;17.80;93.10;;;;;;5112879;28;20110;-71
2021/09/08 11:19:52;;;;;;;0.30;0.30;;;17.80;93.80;;;;;;5114256;28;20047;-71
2021/09/08 11:22:18;;;;;;;0.77;0.20;;;17.80;92.50;;;;;;5114284;28;20102;-69
2021/09/08 11:24:43;;;;;;;3.53;0.40;;;17.80;92.40;;;;;;5112525;28;20032;-69
2021/09/08 11:27:09;;;;;;;1.13;0.30;;;17.80;92.00;;;;;;5113872;28;20019;-69
2021/09/08 11:29:35;;;;;;;0.32;0.30;;;17.80;91.10;;;;;;5113704;28;20375;-69
2021/09/08 11:32:01;;;;;;;0.77;0.40;;;17.80;91.10;;;;;;5113653;28;20027;-68
2021/09/08 11:34:28;;;;;;;0.43;0.22;;;17.80;91.50;;;;;;5113829;28;20034;-67
2021/09/08 11:36:56;;;;;;;0.30;0.20;;;17.70;91.50;;;;;;5113518;28;20019;-68
2021/09/08 11:39:24;;;;;;;0.85;0.30;;;17.60;91.20;;;;;;5113789;28;20023;-66
2021/09/08 11:42:08;;;;;;;2.33;0.30;;;17.60;91.70;;;;;;5113460;28;20568;-70
2021/09/08 11:44:34;;;;;;;2.70;0.40;;;17.60;91.50;;;;;;5112041;28;20019;-66
2021/09/08 11:47:00;;;;;;;1.55;0.50;;;17.60;90.90;;;;;;5113396;28;20076;-68
2021/09/08 11:49:25;;;;;;;0.55;0.30;;;17.60;90.60;;;;;;5113458;28;20035;-68
2021/09/08 11:51:52;;;;;;;0.57;0.35;;;17.60;90.40;;;;;;5113244;28;20059;-67
2021/09/08 11:54:23;;;;;;;1.95;0.10;;;17.60;90.40;;;;;;5113440;28;20050;-67
2021/09/08 11:56:59;;;;;;;1.67;0.20;;;17.70;88.00;;;;;;5113211;28;20103;-66
2021/09/08 11:59:33;;;;;;;6.65;0.50;;;17.70;88.20;;;;;;5113343;28;20076;-68
2021/09/08 12:02:00;;;;;;;0.17;0.17;;;17.80;88.80;;;;;;5113606;28;20024;-66
2021/09/08 12:04:26;;;;;;;0.20;0.20;;;17.80;88.50;;;;;;5113133;28;20031;-66
2021/09/08 12:07:02;;;;;;;0.75;0.25;;;17.80;86.30;;;;;;5113334;28;20023;-66
2021/09/08 12:09:34;;;;;;;1.40;0.40;;;17.70;85.10;;;;;;5113170;28;20046;-66
2021/09/08 12:12:05;;;;;;;0.40;0.30;;;17.80;85.60;;;;;;5113202;28;20026;-68
2021/09/08 12:14:34;;;;;;;0.30;0.20;;;17.70;86.00;;;;;;5112837;28;20031;-68
2021/09/08 12:17:11;;;;;;;0.37;0.20;;;17.80;85.80;;;;;;5112940;28;20016;-68
2021/09/08 12:19:42;;;;;;;2.15;0.40;;;17.90;85.40;;;;;;5112231;28;20356;-67
2021/09/08 12:22:20;;;;;;;0.30;0.20;;;18.00;83.80;;;;;;5112991;28;20016;-68
2021/09/08 12:24:48;;;;;;;4.95;0.75;;;18.00;83.70;;;;;;5112990;28;20482;-67
2021/09/08 12:27:28;;;;;;;0.47;0.20;;;18.10;85.00;;;;;;5113103;28;20023;-67
2021/09/08 12:30:16;;;;;;;1.10;0.25;;;18.20;82.70;;;;;;5112803;28;20062;-67
2021/09/08 12:32:51;;;;;;;0.38;0.20;;;18.20;82.10;;;;;;5108231;28;20521;-67
2021/09/08 12:35:53;;;;;;;0.90;0.20;;;18.20;81.10;;;;;;5112573;28;20471;-67
2021/09/08 12:38:32;;;;;;;2.05;0.20;;;18.20;81.60;;;;;;5003125;28;20047;-68
2021/09/08 12:41:10;;;;;;;1.17;0.20;;;18.20;82.60;;;;;;4999630;28;20083;-68
2021/09/08 12:43:36;;;;;;;0.50;0.30;;;18.20;83.00;;;;;;4999002;28;20072;-68
2021/09/08 12:46:03;;;;;;;0.10;0.08;;;18.30;82.50;;;;;;4998101;28;20018;-68
2021/09/08 12:48:29;;;;;;;0.30;0.25;;;18.30;83.10;;;;;;5000074;28;20428;-68
2021/09/08 12:50:55;;;;;;;0.40;0.30;;;18.30;83.70;;;;;;4998752;28;20386;-68
2021/09/08 12:53:21;;;;;;;0.65;0.38;;;18.30;83.90;;;;;;4997982;28;20071;-68
2021/09/08 12:55:47;;;;;;;1.35;0.40;;;18.30;83.20;;;;;;4999880;28;20022;-68
2021/09/08 12:58:12;;;;;;;2.40;0.20;;;18.30;82.90;;;;;;4998459;28;20038;-68
2021/09/08 13:00:38;;;;;;;0.25;0.20;;;18.40;81.90;;;;;;4998532;28;20033;-68
2021/09/08 13:03:04;;;;;;;0.20;0.20;;;18.40;82.50;;;;;;4999833;28;20022;-68
2021/09/08 13:05:30;;;;;;;2.33;0.30;;;18.40;81.30;;;;;;4998248;28;20042;-68
2021/09/08 13:07:56;;;;;;;2.40;0.22;;;18.40;82.10;;;;;;4999017;28;20018;-68
2021/09/08 13:10:22;;;;;;;0.82;0.30;;;18.50;80.50;;;;;;4999774;28;20026;-67
2021/09/08 13:12:48;;;;;;;1.00;0.40;;;18.60;80.50;;;;;;4997662;28;20039;-67
2021/09/08 13:15:14;;;;;;;8.43;0.30;;;18.60;78.10;;;;;;4999516;28;20524;-68
2021/09/08 13:17:40;;;;;;;3.05;0.32;;;18.70;78.50;;;;;;4999292;28;20019;-67